Time,TemperatureF,DewpointF,PressureIn,WindDirection,WindDirectionDegrees,WindSpeedMPH,WindSpeedGustMPH,Humidity,HourlyPrecipIn,Conditions,Clouds,dailyrainin,SoftwareType,DateUTC
2014-12-28 00:03:00,7.6,3.8,29.89,SSE,163,2.0,3.0,84,0.00,,---,0.00,VWS V14.00,2014-12-28 07:03:00,
2014-12-28 00:09:00,7.0,3.2,29.89,SSE,163,3.0,3.0,84,0.00,,---,0.00,VWS V14.00,2014-12-28 07:09:00,
2014-12-28 00:15:00,7.2,3.4,29.89,SSE,163,1.0,2.0,84,0.00,,---,0.00,VWS V14.00,2014-12-28 07:15:00,
2014-12-28 00:21:00,7.7,3.9,29.89,SSE,163,0.0,1.0,84,0.00,,---,0.00,VWS V14.00,2014-12-28 07:21:00,
2014-12-28 00:26:00,8.1,4.3,29.89,SSE,163,0.0,1.0,84,0.00,,---,0.00,VWS V14.00,2014-12-28 07:26:00,
2014-12-28 00:31:00,8.3,4.5,29.89,SSE,163,0.0,1.0,84,0.00,,---,0.00,VWS V14.00,2014-12-28 07:31:00,
2014-12-28 00:37:00,8.3,4.7,29.89,SSE,163,0.0,0.0,85,0.00,,---,0.00,VWS V14.00,2014-12-28 07:37:00,
2014-12-28 00:43:00,8.1,4.3,29.89,SSE,163,1.0,1.0,84,0.00,,---,0.00,VWS V14.00,2014-12-28 07:43:00,
2014-12-28 00:50:00,8.3,4.5,29.89,SSE,163,2.0,2.0,84,0.00,,---,0.00,VWS V14.00,2014-12-28 07:50:00,
2014-12-28 00:56:00,8.1,4.3,29.89,SSE,163,0.0,1.0,84,0.00,,---,0.00,VWS V14.00,2014-12-28 07:56:00,
2014-12-28 01:01:00,7.8,4.0,29.89,SSE,163,0.0,0.0,84,0.00,,---,0.00,VWS V14.00,2014-12-28 08:01:00,
2014-12-28 01:08:00,7.4,3.6,29.89,SSE,163,1.0,3.0,84,0.00,,---,0.00,VWS V14.00,2014-12-28 08:08:00,
2014-12-28 01:14:00,6.9,2.8,29.89,SSE,163,1.0,2.0,83,0.00,,---,0.00,VWS V14.00,2014-12-28 08:14:00,
2014-12-28 01:20:00,6.3,2.2,29.89,SSE,163,1.0,2.0,83,0.00,,---,0.00,VWS V14.00,2014-12-28 08:20:00,
2014-12-28 01:26:00,6.3,2.5,29.89,SSE,163,1.0,2.0,84,0.00,,---,0.00,VWS V14.00,2014-12-28 08:26:00,
2014-12-28 01:31:00,6.5,2.7,29.89,SSE,163,1.0,2.0,84,0.00,,---,0.00,VWS V14.00,2014-12-28 08:31:00,
2014-12-28 01:36:00,6.9,3.1,29.89,SSE,163,1.0,2.0,84,0.00,,---,0.00,VWS V14.00,2014-12-28 08:36:00,
2014-12-28 01:41:00,7.5,3.7,29.89,SSE,163,2.0,2.0,84,0.00,,---,0.00,VWS V14.00,2014-12-28 08:41:00,
2014-12-28 01:46:00,7.8,4.0,29.89,SSE,163,3.0,3.0,84,0.00,,---,0.00,VWS V14.00,2014-12-28 08:46:00,
2014-12-28 01:52:00,7.2,3.4,29.89,SSE,165,2.0,3.0,84,0.00,,---,0.00,VWS V14.00,2014-12-28 08:52:00,
2014-12-28 01:58:00,6.5,2.5,29.89,SSE,153,2.0,5.0,83,0.00,,---,0.00,VWS V14.00,2014-12-28 08:58:00,
2014-12-28 02:05:00,6.8,3.0,29.89,SSE,154,2.0,4.0,84,0.00,,---,0.00,VWS V14.00,2014-12-28 09:05:00,
2014-12-28 02:11:00,7.3,3.5,29.89,SSE,155,2.0,3.0,84,0.00,,---,0.00,VWS V14.00,2014-12-28 09:11:00,
2014-12-28 02:16:00,7.8,4.0,29.89,SW,219,1.0,3.0,84,0.00,,---,0.00,VWS V14.00,2014-12-28 09:16:00,
2014-12-28 02:21:00,7.6,3.8,29.89,SW,218,0.0,1.0,84,0.00,,---,0.00,VWS V14.00,2014-12-28 09:21:00,
2014-12-28 02:27:00,7.3,3.5,29.89,SW,218,0.0,1.0,84,0.00,,---,0.00,VWS V14.00,2014-12-28 09:27:00,
2014-12-28 02:33:00,7.2,3.4,29.89,SW,218,1.0,1.0,84,0.00,,---,0.00,VWS V14.00,2014-12-28 09:33:00,
2014-12-28 02:39:00,5.9,1.9,29.89,South,191,5.0,5.0,83,0.00,,---,0.00,VWS V14.00,2014-12-28 09:39:00,
2014-12-28 02:45:00,5.4,1.4,29.89,South,191,1.0,2.0,83,0.00,,---,0.00,VWS V14.00,2014-12-28 09:45:00,
2014-12-28 02:51:00,5.6,1.6,29.89,South,191,1.0,1.0,83,0.00,,---,0.00,VWS V14.00,2014-12-28 09:51:00,
2014-12-28 02:56:00,6.3,2.5,29.89,South,191,0.0,2.0,84,0.00,,---,0.00,VWS V14.00,2014-12-28 09:56:00,
2014-12-28 03:01:00,6.9,3.3,29.89,South,191,1.0,1.0,85,0.00,,---,0.00,VWS V14.00,2014-12-28 10:01:00,
2014-12-28 03:06:00,6.6,2.8,29.89,South,191,1.0,1.0,84,0.00,,---,0.00,VWS V14.00,2014-12-28 10:06:00,
2014-12-28 03:11:00,6.7,2.9,29.89,South,191,1.0,2.0,84,0.00,,---,0.00,VWS V14.00,2014-12-28 10:11:00,
2014-12-28 03:18:00,6.4,2.6,29.89,South,191,2.0,3.0,84,0.00,,---,0.00,VWS V14.00,2014-12-28 10:18:00,
2014-12-28 03:24:00,5.8,1.8,29.89,SSE,150,1.0,2.0,83,0.00,,---,0.00,VWS V14.00,2014-12-28 10:24:00,
2014-12-28 03:30:00,6.1,2.1,29.89,SSE,150,0.0,2.0,83,0.00,,---,0.00,VWS V14.00,2014-12-28 10:30:00,
2014-12-28 03:36:00,5.7,1.7,29.89,SSE,150,1.0,3.0,83,0.00,,---,0.00,VWS V14.00,2014-12-28 10:36:00,
2014-12-28 03:41:00,4.8,0.8,29.89,SSE,150,2.0,3.0,83,0.00,,---,0.00,VWS V14.00,2014-12-28 10:41:00,
2014-12-28 03:46:00,4.4,0.1,29.89,SSE,150,2.0,3.0,82,0.00,,---,0.00,VWS V14.00,2014-12-28 10:46:00,
2014-12-28 03:52:00,4.5,0.5,29.89,SSE,150,2.0,3.0,83,0.00,,---,0.00,VWS V14.00,2014-12-28 10:52:00,
2014-12-28 03:58:00,4.6,0.6,29.89,SSE,150,1.0,2.0,83,0.00,,---,0.00,VWS V14.00,2014-12-28 10:58:00,
2014-12-28 04:04:00,4.8,0.8,29.89,SSE,150,0.0,2.0,83,0.00,,---,0.00,VWS V14.00,2014-12-28 11:04:00,
2014-12-28 04:10:00,5.6,1.8,29.89,SSE,150,2.0,3.0,84,0.00,,---,0.00,VWS V14.00,2014-12-28 11:10:00,
2014-12-28 04:16:00,6.1,2.3,29.89,SSE,150,3.0,3.0,84,0.00,,---,0.00,VWS V14.00,2014-12-28 11:16:00,
2014-12-28 04:22:00,6.3,2.5,29.89,SSE,150,2.0,3.0,84,0.00,,---,0.00,VWS V14.00,2014-12-28 11:22:00,
2014-12-28 04:29:00,6.6,2.8,29.89,SSE,150,1.0,2.0,84,0.00,,---,0.00,VWS V14.00,2014-12-28 11:29:00,
2014-12-28 04:35:00,6.7,2.9,29.89,SSE,150,0.0,1.0,84,0.00,,---,0.00,VWS V14.00,2014-12-28 11:35:00,
2014-12-28 04:41:00,7.2,3.4,29.89,SSE,150,0.0,2.0,84,0.00,,---,0.00,VWS V14.00,2014-12-28 11:41:00,
2014-12-28 04:46:00,7.4,3.6,29.89,SSE,150,0.0,0.0,84,0.00,,---,0.00,VWS V14.00,2014-12-28 11:46:00,
2014-12-28 04:53:00,7.7,3.9,29.89,SSE,150,0.0,1.0,84,0.00,,---,0.00,VWS V14.00,2014-12-28 11:53:00,
2014-12-28 04:59:00,8.0,4.2,29.89,SSE,150,1.0,3.0,84,0.00,,---,0.00,VWS V14.00,2014-12-28 11:59:00,
2014-12-28 05:05:00,8.2,4.4,29.89,SSE,150,0.0,0.0,84,0.00,,---,0.00,VWS V14.00,2014-12-28 12:05:00,
2014-12-28 05:11:00,8.3,4.5,29.89,SSE,150,0.0,0.0,84,0.00,,---,0.00,VWS V14.00,2014-12-28 12:11:00,
2014-12-28 05:16:00,8.3,4.5,29.89,SSE,150,1.0,2.0,84,0.00,,---,0.00,VWS V14.00,2014-12-28 12:16:00,
2014-12-28 05:21:00,8.2,4.1,29.89,SSE,150,0.0,1.0,83,0.00,,---,0.00,VWS V14.00,2014-12-28 12:21:00,
2014-12-28 05:27:00,8.1,4.0,29.89,SSE,150,0.0,0.0,83,0.00,,---,0.00,VWS V14.00,2014-12-28 12:27:00,
2014-12-28 05:33:00,8.2,4.4,29.89,SSE,150,1.0,2.0,84,0.00,,---,0.00,VWS V14.00,2014-12-28 12:33:00,
2014-12-28 05:40:00,8.6,4.8,29.89,SSE,150,1.0,1.0,84,0.00,,---,0.00,VWS V14.00,2014-12-28 12:40:00,
2014-12-28 05:46:00,9.1,5.3,29.89,SSE,150,1.0,3.0,84,0.00,,---,0.00,VWS V14.00,2014-12-28 12:46:00,
2014-12-28 05:51:00,9.5,5.7,29.89,SSE,150,1.0,3.0,84,0.00,,---,0.00,VWS V14.00,2014-12-28 12:51:00,
2014-12-28 05:58:00,10.0,6.1,29.89,SSE,150,1.0,2.0,84,0.00,,---,0.00,VWS V14.00,2014-12-28 12:58:00,
2014-12-28 06:04:00,10.4,6.5,29.89,SSE,150,0.0,0.0,84,0.00,,---,0.00,VWS V14.00,2014-12-28 13:04:00,
2014-12-28 06:10:00,10.6,6.7,29.89,SSE,150,0.0,2.0,84,0.00,,---,0.00,VWS V14.00,2014-12-28 13:10:00,
2014-12-28 06:16:00,10.7,6.8,29.89,SSE,150,1.0,2.0,84,0.00,,---,0.00,VWS V14.00,2014-12-28 13:16:00,
2014-12-28 06:21:00,10.7,6.8,29.89,SSE,150,1.0,2.0,84,0.00,,---,0.00,VWS V14.00,2014-12-28 13:21:00,
2014-12-28 06:26:00,10.8,6.9,29.89,SSE,150,1.0,2.0,84,0.00,,---,0.00,VWS V14.00,2014-12-28 13:26:00,
2014-12-28 06:32:00,11.0,7.1,29.89,SSE,150,1.0,2.0,84,0.00,,---,0.00,VWS V14.00,2014-12-28 13:32:00,
2014-12-28 06:39:00,11.1,7.2,29.89,SSE,150,0.0,2.0,84,0.00,,---,0.00,VWS V14.00,2014-12-28 13:39:00,
2014-12-28 06:45:00,11.3,7.4,29.89,SSE,150,1.0,1.0,84,0.00,,---,0.00,VWS V14.00,2014-12-28 13:45:00,
2014-12-28 06:51:00,11.3,7.4,29.89,SSE,150,0.0,0.0,84,0.00,,---,0.00,VWS V14.00,2014-12-28 13:51:00,
2014-12-28 06:56:00,11.4,7.5,29.89,SSE,150,0.0,1.0,84,0.00,,---,0.00,VWS V14.00,2014-12-28 13:56:00,
2014-12-28 07:01:00,11.6,7.7,29.89,SSE,150,1.0,2.0,84,0.00,,---,0.00,VWS V14.00,2014-12-28 14:01:00,
2014-12-28 07:06:00,11.7,7.8,29.89,SSE,150,0.0,0.0,84,0.00,,---,0.00,VWS V14.00,2014-12-28 14:06:00,
2014-12-28 07:11:00,11.9,8.0,29.89,SSE,150,2.0,3.0,84,0.00,,---,0.00,VWS V14.00,2014-12-28 14:11:00,
2014-12-28 07:16:00,11.9,8.0,29.89,SSE,150,3.0,3.0,84,0.00,,---,0.00,VWS V14.00,2014-12-28 14:16:00,
2014-12-28 07:23:00,11.9,8.0,29.89,SSE,150,2.0,2.0,84,0.00,,---,0.00,VWS V14.00,2014-12-28 14:23:00,
2014-12-28 07:29:00,11.7,7.8,29.89,SSE,150,1.0,2.0,84,0.00,,---,0.00,VWS V14.00,2014-12-28 14:29:00,
2014-12-28 07:35:00,11.6,7.7,29.89,SSE,150,1.0,2.0,84,0.00,,---,0.00,VWS V14.00,2014-12-28 14:35:00,